Time;durP1;ratioP1;P1;durP2;ratioP2;P2;SDS_P1;SDS_P2;PMS_P1;PMS_P2;Temp;Humidity;BMP_temperature;BMP_pressure;BME280_temperature;BME280_humidity;BME280_pressure;Samples;Min_cycle;Max_cycle;Signal;HPM_P1;HPM_P2
2022/03/15 00:00:40;;;;;;;41.05;17.42;;;;;;;;;;8363753;28;20057;-74
2022/03/15 00:04:47;;;;;;;36.42;15.65;;;;;;;;;;8366134;28;20060;-76
2022/03/15 00:08:50;;;;;;;;;;;;;;;;;;8367131;28;20045;-76
2022/03/15 00:12:56;;;;;;;47.08;17.42;;;;;;;;;;8366563;28;19936;-76
2022/03/15 00:16:59;;;;;;;34.70;14.45;;;;;;;;;;8366315;28;20045;-75
2022/03/15 00:21:04;;;;;;;37.42;16.48;;;;;;;;;;8366005;28;20041;-76
2022/03/15 00:25:08;;;;;;;41.90;15.55;;;;;;;;;;8363322;28;20610;-76
2022/03/15 00:29:13;;;;;;;41.67;15.00;;;;;;;;;;8366368;28;20041;-76
2022/03/15 00:33:15;;;;;;;45.20;15.73;;;;;;;;;;8358049;28;20048;-76
2022/03/15 00:37:17;;;;;;;36.70;14.20;;;;;;;;;;8365608;28;20045;-77
2022/03/15 00:41:20;;;;;;;33.80;13.68;;;;;;;;;;8365863;28;20055;-76
2022/03/15 00:45:25;;;;;;;33.60;13.20;;;;;;;;;;8365503;28;20076;-77
2022/03/15 00:49:27;;;;;;;32.60;14.18;;;;;;;;;;8362490;28;20045;-77
2022/03/15 00:53:30;;;;;;;59.30;21.13;;;;;;;;;;8365461;28;20045;-76
2022/03/15 00:57:32;;;;;;;34.03;14.75;;;;;;;;;;8367056;28;20069;-77
2022/03/15 01:01:36;;;;;;;32.70;14.45;;;;;;;;;;8367284;28;20385;-77
2022/03/15 01:05:40;;;;;;;31.38;13.60;;;;;;;;;;8366977;28;20059;-76
2022/03/15 01:09:42;;;;;;;40.03;15.10;;;;;;;;;;8366171;28;20496;-77
2022/03/15 01:13:45;;;;;;;32.28;13.23;;;;;;;;;;8366151;28;20503;-76
2022/03/15 01:17:49;;;;;;;33.35;14.60;;;;;;;;;;8379172;28;20056;-76
2022/03/15 01:21:52;;;;;;;40.70;15.27;;;;;;;;;;8399176;28;20040;-76
2022/03/15 01:25:55;;;;;;;107.60;30.85;;;;;;;;;;8399474;28;20075;-76
2022/03/15 01:29:58;;;;;;;38.33;16.27;;;;;;;;;;8399415;28;20049;-75
2022/03/15 01:34:03;;;;;;;36.90;15.63;;;;;;;;;;8398681;28;20048;-76
2022/03/15 01:38:05;;;;;;;40.45;15.25;;;;;;;;;;8399109;28;20127;-75
2022/03/15 01:42:09;;;;;;;35.80;14.95;;;;;;;;;;8398628;28;20056;-76
2022/03/15 01:46:12;;;;;;;28.98;13.18;;;;;;;;;;8398340;28;20045;-75
2022/03/15 01:50:16;;;;;;;32.95;13.45;;;;;;;;;;8398361;28;20041;-75
2022/03/15 01:54:20;;;;;;;33.53;14.75;;;;;;;;;;8398633;28;20644;-74
2022/03/15 01:58:22;;;;;;;40.90;14.43;;;;;;;;;;8398477;28;20052;-75
2022/03/15 02:02:25;;;;;;;42.97;15.07;;;;;;;;;;8398205;28;20411;-75
2022/03/15 02:06:29;;;;;;;35.53;14.52;;;;;;;;;;8398296;28;20473;-76
2022/03/15 02:10:31;;;;;;;38.20;14.13;;;;;;;;;;8398022;28;20396;-75
2022/03/15 02:14:34;;;;;;;50.92;19.23;;;;;;;;;;8397968;28;20369;-76
2022/03/15 02:18:37;;;;;;;38.33;15.85;;;;;;;;;;8397479;28;20557;-75
2022/03/15 02:22:41;;;;;;;36.92;14.10;;;;;;;;;;8397391;28;20047;-76
2022/03/15 02:26:43;;;;;;;32.42;14.77;;;;;;;;;;8397506;28;20045;-76
2022/03/15 02:30:46;;;;;;;32.85;14.15;;;;;;;;;;8397958;28;20060;-76
2022/03/15 02:34:48;;;;;;;38.63;15.75;;;;;;;;;;8397837;28;20076;-76
2022/03/15 02:38:52;;;;;;;33.53;13.48;;;;;;;;;;8397122;28;20041;-77
2022/03/15 02:42:55;;;;;;;44.13;17.25;;;;;;;;;;8397625;28;20052;-76
2022/03/15 02:46:57;;;;;;;38.45;15.18;;;;;;;;;;8397547;28;20053;-76
2022/03/15 02:51:01;;;;;;;36.53;15.57;;;;;;;;;;8396954;28;20476;-74
2022/03/15 02:55:06;;;;;;;44.22;15.65;;;;;;;;;;8396657;28;20059;-74
2022/03/15 02:59:08;;;;;;;42.25;15.65;;;;;;;;;;8397209;28;20048;-77
2022/03/15 03:03:11;;;;;;;34.83;14.70;;;;;;;;;;8396973;28;20094;-76
2022/03/15 03:07:17;;;;;;;34.10;13.65;;;;;;;;;;8396809;28;20098;-76
2022/03/15 03:11:21;;;;;;;33.90;15.02;;;;;;;;;;8396843;28;20047;-74
2022/03/15 03:15:24;;;;;;;27.92;13.52;;;;;;;;;;8396763;28;20056;-75
2022/03/15 03:19:27;;;;;;;40.55;15.18;;;;;;;;;;8401949;28;20056;-75
2022/03/15 03:23:31;;;;;;;40.30;15.25;;;;;;;;;;8403503;28;20472;-74
2022/03/15 03:27:35;;;;;;;31.00;14.05;;;;;;;;;;8402880;28;20048;-78
2022/03/15 03:31:38;;;;;;;30.55;14.07;;;;;;;;;;8403396;28;20468;-75
2022/03/15 03:35:41;;;;;;;36.70;15.65;;;;;;;;;;8403139;28;20515;-75
2022/03/15 03:39:43;;;;;;;31.05;14.68;;;;;;;;;;8402830;28;20045;-75
2022/03/15 03:43:47;;;;;;;34.28;14.98;;;;;;;;;;8402506;28;20044;-75
2022/03/15 03:47:51;;;;;;;36.15;14.40;;;;;;;;;;8402698;28;20113;-77
2022/03/15 03:51:54;;;;;;;47.25;19.80;;;;;;;;;;8402079;28;20052;-76
2022/03/15 03:55:56;;;;;;;38.00;18.73;;;;;;;;;;8402402;28;20476;-77
2022/03/15 04:00:00;;;;;;;34.78;14.65;;;;;;;;;;8402121;28;20048;-76
2022/03/15 04:04:05;;;;;;;38.63;14.82;;;;;;;;;;8402199;28;20049;-78
2022/03/15 04:08:08;;;;;;;29.38;14.63;;;;;;;;;;8401612;28;20105;-75
2022/03/15 04:12:11;;;;;;;56.75;24.58;;;;;;;;;;8401547;28;20048;-77
2022/03/15 04:16:15;;;;;;;47.70;18.00;;;;;;;;;;8401568;28;20040;-75
2022/03/15 04:20:19;;;;;;;39.72;17.63;;;;;;;;;;8401618;28;20488;-77
2022/03/15 04:24:21;;;;;;;58.40;24.52;;;;;;;;;;8401062;28;20195;-77
2022/03/15 04:28:24;;;;;;;59.97;29.50;;;;;;;;;;8399736;28;20081;-77
2022/03/15 04:32:28;;;;;;;48.05;20.45;;;;;;;;;;8400605;28;20040;-77
2022/03/15 04:36:30;;;;;;;49.78;19.05;;;;;;;;;;8400695;28;20067;-76
2022/03/15 04:40:33;;;;;;;47.92;17.55;;;;;;;;;;8390114;28;20056;-75
2022/03/15 04:44:35;;;;;;;48.28;17.45;;;;;;;;;;8400501;28;20080;-74
2022/03/15 04:48:40;;;;;;;45.20;19.92;;;;;;;;;;8400625;28;20439;-75
2022/03/15 04:52:42;;;;;;;46.15;18.25;;;;;;;;;;8392701;28;20043;-77
2022/03/15 04:56:45;;;;;;;47.80;22.77;;;;;;;;;;8400541;28;20507;-75
2022/03/15 05:00:47;;;;;;;;;;;;;;;;;;8400410;28;20135;-76
2022/03/15 05:04:51;;;;;;;43.97;15.85;;;;;;;;;;8400347;28;19943;-75
2022/03/15 05:08:54;;;;;;;43.08;19.30;;;;;;;;;;8399561;28;20136;-74
2022/03/15 05:12:56;;;;;;;54.33;21.52;;;;;;;;;;8399920;28;20488;-76
2022/03/15 05:16:59;;;;;;;47.70;19.58;;;;;;;;;;8399131;28;20061;-77
2022/03/15 05:21:04;;;;;;;68.80;25.00;;;;;;;;;;8397669;28;20086;-76
2022/03/15 05:25:07;;;;;;;73.45;25.95;;;;;;;;;;8395675;28;20041;-75
2022/03/15 05:29:10;;;;;;;78.03;30.48;;;;;;;;;;8394057;28;20052;-75
2022/03/15 05:33:13;;;;;;;322.00;84.85;;;;;;;;;;8395698;28;20468;-76
2022/03/15 05:37:17;;;;;;;82.75;32.75;;;;;;;;;;8396670;28;20396;-74
2022/03/15 05:41:20;;;;;;;137.93;42.63;;;;;;;;;;8380142;28;20519;-77
2022/03/15 05:45:23;;;;;;;100.75;33.08;;;;;;;;;;8393871;28;20568;-76
2022/03/15 05:49:25;;;;;;;51.17;20.73;;;;;;;;;;8394695;28;20048;-75
2022/03/15 05:53:31;;;;;;;54.70;20.27;;;;;;;;;;8392880;28;20044;-76
2022/03/15 05:57:33;;;;;;;134.57;38.33;;;;;;;;;;8395092;28;20045;-77
2022/03/15 06:01:36;;;;;;;219.23;60.67;;;;;;;;;;8387253;28;20094;-76
2022/03/15 06:05:39;;;;;;;122.80;39.13;;;;;;;;;;8384579;28;20051;-75
2022/03/15 06:09:44;;;;;;;115.20;33.00;;;;;;;;;;8397154;28;20072;-77
2022/03/15 06:13:47;;;;;;;85.38;32.33;;;;;;;;;;8397908;28;20048;-76
2022/03/15 06:17:57;;;;;;;71.55;28.77;;;;;;;;;;8375008;28;20064;-73
2022/03/15 06:22:01;;;;;;;64.68;25.80;;;;;;;;;;8396800;28;20055;-76
2022/03/15 06:26:06;;;;;;;69.47;27.95;;;;;;;;;;8396739;28;20480;-75
2022/03/15 06:30:14;;;;;;;67.68;26.20;;;;;;;;;;8382044;28;20053;-73
2022/03/15 06:34:23;;;;;;;43.80;20.13;;;;;;;;;;8363625;28;20053;-75
2022/03/15 06:38:28;;;;;;;37.67;16.95;;;;;;;;;;8363510;28;20053;-76
2022/03/15 06:42:34;;;;;;;30.33;14.45;;;;;;;;;;8367374;28;20476;-76
2022/03/15 06:46:38;;;;;;;30.00;15.88;;;;;;;;;;8396891;28;20481;-78
2022/03/15 06:50:42;;;;;;;32.67;15.98;;;;;;;;;;8394555;28;20388;-76
2022/03/15 06:54:44;;;;;;;30.48;15.60;;;;;;;;;;8394849;28;20120;-77
2022/03/15 06:58:50;;;;;;;32.17;16.05;;;;;;;;;;8394827;28;20040;-77
2022/03/15 07:02:53;;;;;;;27.02;15.68;;;;;;;;;;8389019;28;20094;-77
2022/03/15 07:06:55;;;;;;;28.98;14.95;;;;;;;;;;8397134;28;20053;-77
2022/03/15 07:10:58;;;;;;;28.38;15.18;;;;;;;;;;8396970;28;20441;-75
2022/03/15 07:15:04;;;;;;;22.40;14.50;;;;;;;;;;8392722;28;20040;-76
2022/03/15 07:19:06;;;;;;;22.80;14.23;;;;;;;;;;8395710;28;20131;-77
2022/03/15 07:23:09;;;;;;;22.75;14.13;;;;;;;;;;8396568;28;20135;-75
2022/03/15 07:27:11;;;;;;;22.80;13.80;;;;;;;;;;8396066;28;20136;-76
2022/03/15 07:31:15;;;;;;;21.50;13.18;;;;;;;;;;8388556;28;20071;-75
2022/03/15 07:35:18;;;;;;;33.38;17.65;;;;;;;;;;8390327;28;20079;-76
2022/03/15 07:39:22;;;;;;;22.88;14.98;;;;;;;;;;8340244;28;20060;-75
2022/03/15 07:43:27;;;;;;;22.70;12.77;;;;;;;;;;8377176;28;20048;-76
2022/03/15 07:47:35;;;;;;;22.58;13.23;;;;;;;;;;8362514;28;20068;-76
2022/03/15 07:51:40;;;;;;;21.13;13.35;;;;;;;;;;8383703;28;20063;-75
2022/03/15 07:55:44;;;;;;;21.05;13.02;;;;;;;;;;8395219;28;20055;-77
2022/03/15 07:59:48;;;;;;;19.52;12.23;;;;;;;;;;8394837;28;20380;-76
2022/03/15 08:03:54;;;;;;;20.30;12.30;;;;;;;;;;8394038;28;20423;-77
2022/03/15 08:07:58;;;;;;;22.98;13.77;;;;;;;;;;8383654;28;20048;-77
2022/03/15 08:12:01;;;;;;;15.90;9.95;;;;;;;;;;8393916;28;20052;-78
2022/03/15 08:16:05;;;;;;;19.67;10.68;;;;;;;;;;8372423;28;20041;-77
2022/03/15 08:20:14;;;;;;;16.77;9.45;;;;;;;;;;8335177;28;20112;-77
2022/03/15 08:24:19;;;;;;;16.10;8.70;;;;;;;;;;8334944;28;20041;-78
2022/03/15 08:28:24;;;;;;;17.63;9.82;;;;;;;;;;8334222;28;20046;-77
2022/03/15 08:32:28;;;;;;;14.02;8.65;;;;;;;;;;8334372;28;20114;-78
2022/03/15 08:36:34;;;;;;;13.45;7.63;;;;;;;;;;8334248;28;20053;-77
2022/03/15 08:40:37;;;;;;;11.75;7.40;;;;;;;;;;8350436;28;20049;-78
2022/03/15 08:44:41;;;;;;;11.70;6.88;;;;;;;;;;8343399;28;20050;-77
2022/03/15 08:48:44;;;;;;;13.48;8.45;;;;;;;;;;8362965;28;20053;-78
2022/03/15 08:52:48;;;;;;;12.63;7.82;;;;;;;;;;8355076;28;20056;-77
2022/03/15 08:56:51;;;;;;;14.30;9.15;;;;;;;;;;8353284;28;20519;-77
2022/03/15 09:00:53;;;;;;;14.07;8.63;;;;;;;;;;8335016;28;20496;-77
2022/03/15 09:04:56;;;;;;;15.60;9.05;;;;;;;;;;8329524;28;20441;-78
2022/03/15 09:09:01;;;;;;;15.45;8.35;;;;;;;;;;8323856;28;20560;-77
2022/03/15 09:13:07;;;;;;;11.35;7.07;;;;;;;;;;8344442;28;20048;-76
2022/03/15 09:17:10;;;;;;;13.73;7.25;;;;;;;;;;8351795;28;20044;-78
2022/03/15 09:21:13;;;;;;;13.20;6.30;;;;;;;;;;8395980;28;20057;-77
2022/03/15 09:25:18;;;;;;;10.00;4.97;;;;;;;;;;8394775;28;20049;-77
2022/03/15 09:29:21;;;;;;;7.40;4.97;;;;;;;;;;8394417;28;20055;-76
2022/03/15 09:33:24;;;;;;;9.57;5.75;;;;;;;;;;8397826;28;20040;-76
2022/03/15 09:37:27;;;;;;;10.27;6.13;;;;;;;;;;8394866;28;20042;-76
2022/03/15 09:41:35;;;;;;;10.93;5.88;;;;;;;;;;8396673;28;20044;-76
2022/03/15 09:45:44;;;;;;;9.18;5.97;;;;;;;;;;8397706;28;20178;-77
2022/03/15 09:49:48;;;;;;;12.43;6.43;;;;;;;;;;8396311;28;20052;-76
2022/03/15 09:53:52;;;;;;;10.70;6.78;;;;;;;;;;8395479;28;20407;-76
2022/03/15 09:57:57;;;;;;;10.30;5.55;;;;;;;;;;8396530;28;20064;-76
2022/03/15 10:02:00;;;;;;;11.57;5.80;;;;;;;;;;8399034;28;20094;-76
2022/03/15 10:06:03;;;;;;;10.27;6.22;;;;;;;;;;8394032;28;20495;-76
2022/03/15 10:10:07;;;;;;;10.48;6.32;;;;;;;;;;8397612;28;20048;-77
2022/03/15 10:14:12;;;;;;;12.43;6.47;;;;;;;;;;8397103;28;20045;-77
2022/03/15 10:18:19;;;;;;;10.82;6.32;;;;;;;;;;8379643;28;20061;-77
2022/03/15 10:22:24;;;;;;;11.98;5.50;;;;;;;;;;8363828;28;20079;-77
2022/03/15 10:26:27;;;;;;;11.73;5.70;;;;;;;;;;8363684;28;20459;-76
2022/03/15 10:30:32;;;;;;;12.05;6.35;;;;;;;;;;8363739;28;20053;-76
2022/03/15 10:34:35;;;;;;;11.02;5.95;;;;;;;;;;8363821;28;20098;-76
2022/03/15 10:38:46;;;;;;;13.23;6.22;;;;;;;;;;8356441;28;20083;-76
2022/03/15 10:42:48;;;;;;;11.10;6.07;;;;;;;;;;8351515;28;20045;-77
2022/03/15 10:47:09;;;;;;;11.25;6.22;;;;;;;;;;8361529;28;20449;-76
2022/03/15 10:51:14;;;;;;;12.23;6.22;;;;;;;;;;8362939;28;20072;-76
2022/03/15 10:55:20;;;;;;;14.13;6.65;;;;;;;;;;8361340;28;20404;-77
2022/03/15 10:59:23;;;;;;;13.05;6.32;;;;;;;;;;8363275;28;20452;-77
2022/03/15 11:03:29;;;;;;;11.40;6.35;;;;;;;;;;8338279;28;20133;-77
2022/03/15 11:07:38;;;;;;;10.25;5.97;;;;;;;;;;8361740;28;20500;-76
2022/03/15 11:11:44;;;;;;;11.00;6.28;;;;;;;;;;8362170;28;20059;-76
2022/03/15 11:15:53;;;;;;;11.63;5.88;;;;;;;;;;8362715;28;20137;-76
2022/03/15 11:20:03;;;;;;;13.50;6.25;;;;;;;;;;8362114;28;20052;-75
2022/03/15 11:24:12;;;;;;;10.75;6.32;;;;;;;;;;8362704;28;20052;-76
2022/03/15 11:28:24;;;;;;;12.40;7.47;;;;;;;;;;8346193;28;20469;-76
2022/03/15 11:32:27;;;;;;;13.95;9.48;;;;;;;;;;8361093;28;20072;-76
2022/03/15 11:36:32;;;;;;;10.00;5.65;;;;;;;;;;8362613;28;20547;-76
2022/03/15 11:40:36;;;;;;;11.73;6.50;;;;;;;;;;8363329;28;20476;-77
2022/03/15 11:44:49;;;;;;;12.75;5.80;;;;;;;;;;8365768;28;20045;-77
2022/03/15 11:48:56;;;;;;;12.00;7.25;;;;;;;;;;8366381;28;20122;-76
2022/03/15 11:53:16;;;;;;;12.13;6.60;;;;;;;;;;8357546;28;20128;-77
2022/03/15 11:57:30;;;;;;;11.43;6.63;;;;;;;;;;8355304;28;20049;-77
2022/03/15 12:01:43;;;;;;;14.75;6.25;;;;;;;;;;8370576;28;20308;-77
2022/03/15 12:05:50;;;;;;;11.88;6.20;;;;;;;;;;8382784;28;20056;-76
2022/03/15 12:09:59;;;;;;;10.98;7.47;;;;;;;;;;8387002;28;20049;-76
2022/03/15 12:14:09;;;;;;;11.45;6.13;;;;;;;;;;8388803;28;20427;-75
2022/03/15 12:18:23;;;;;;;10.07;6.10;;;;;;;;;;8389853;28;20064;-76
2022/03/15 12:22:30;;;;;;;12.27;7.70;;;;;;;;;;8391026;28;20041;-76
2022/03/15 12:26:35;;;;;;;12.07;8.32;;;;;;;;;;8374970;28;20445;-78
2022/03/15 12:30:38;;;;;;;7.47;4.70;;;;;;;;;;8364517;28;20107;-78
2022/03/15 12:34:43;;;;;;;12.60;6.57;;;;;;;;;;8365715;28;20488;-77
2022/03/15 12:38:46;;;;;;;8.40;4.55;;;;;;;;;;8366335;28;20151;-77
2022/03/15 12:42:57;;;;;;;5.97;3.88;;;;;;;;;;8349264;28;20050;-77
2022/03/15 12:47:00;;;;;;;7.18;4.43;;;;;;;;;;8362565;28;20071;-78
2022/03/15 12:51:04;;;;;;;6.95;4.03;;;;;;;;;;8365643;28;20056;-77
2022/03/15 12:55:08;;;;;;;12.80;5.35;;;;;;;;;;8368324;28;20132;-76
2022/03/15 12:59:23;;;;;;;8.25;4.85;;;;;;;;;;8371901;28;20373;-78
2022/03/15 13:03:26;;;;;;;10.43;5.20;;;;;;;;;;8365036;28;20041;-76
2022/03/15 13:07:30;;;;;;;8.82;4.82;;;;;;;;;;8365662;28;20495;-79
2022/03/15 13:11:34;;;;;;;9.18;4.20;;;;;;;;;;8367867;28;20465;-77
2022/03/15 13:15:46;;;;;;;9.32;5.05;;;;;;;;;;8362233;28;20401;-76
2022/03/15 13:19:51;;;;;;;13.25;6.07;;;;;;;;;;8364651;28;20493;-77
2022/03/15 13:24:10;;;;;;;6.78;4.25;;;;;;;;;;8362710;28;20120;-77
2022/03/15 13:28:19;;;;;;;8.82;3.88;;;;;;;;;;8365846;28;20444;-78
2022/03/15 13:32:29;;;;;;;7.15;3.50;;;;;;;;;;8364453;28;20053;-76
2022/03/15 13:36:36;;;;;;;7.28;3.80;;;;;;;;;;8364985;28;20423;-77
2022/03/15 13:40:40;;;;;;;5.47;3.35;;;;;;;;;;8365550;28;20068;-76
2022/03/15 13:44:52;;;;;;;9.60;4.00;;;;;;;;;;8365317;28;20048;-77
2022/03/15 13:49:00;;;;;;;8.63;4.18;;;;;;;;;;8343708;28;20499;-78
2022/03/15 13:53:19;;;;;;;6.95;4.38;;;;;;;;;;8363183;28;20051;-77
2022/03/15 13:57:31;;;;;;;11.35;5.30;;;;;;;;;;8364339;28;20048;-76
2022/03/15 14:01:38;;;;;;;16.60;7.13;;;;;;;;;;8355775;28;20048;-75
2022/03/15 14:05:47;;;;;;;10.55;4.80;;;;;;;;;;8363731;28;20049;-77
2022/03/15 14:09:59;;;;;;;13.20;5.40;;;;;;;;;;8363063;28;20064;-76
2022/03/15 14:14:08;;;;;;;12.00;6.27;;;;;;;;;;8361879;28;20052;-78
2022/03/15 14:18:23;;;;;;;7.18;4.47;;;;;;;;;;8363443;28;20642;-77
2022/03/15 14:22:31;;;;;;;10.50;4.78;;;;;;;;;;8365794;28;20041;-76
2022/03/15 14:26:35;;;;;;;10.35;5.00;;;;;;;;;;8365002;28;20053;-76
2022/03/15 14:30:41;;;;;;;14.13;6.10;;;;;;;;;;8364582;28;20142;-77
2022/03/15 14:34:56;;;;;;;9.75;5.32;;;;;;;;;;8364220;28;20056;-77
2022/03/15 14:39:14;;;;;;;11.13;5.57;;;;;;;;;;8363879;28;20476;-76
2022/03/15 14:43:20;;;;;;;13.95;6.43;;;;;;;;;;8340824;28;20055;-76
2022/03/15 14:47:25;;;;;;;15.63;8.65;;;;;;;;;;8361730;28;20076;-77
2022/03/15 14:51:38;;;;;;;10.25;6.13;;;;;;;;;;8363015;28;20049;-76
2022/03/15 14:55:52;;;;;;;13.20;6.90;;;;;;;;;;8359527;28;20512;-77
2022/03/15 14:59:59;;;;;;;;;;;;;;;;;;8360337;28;20086;-77
2022/03/15 15:04:07;;;;;;;13.25;6.18;;;;;;;;;;8362511;28;19925;-76
2022/03/15 15:08:22;;;;;;;14.05;7.43;;;;;;;;;;8362436;28;20136;-77
2022/03/15 15:12:43;;;;;;;15.48;7.70;;;;;;;;;;8364194;28;20511;-75
2022/03/15 15:17:05;;;;;;;13.55;7.00;;;;;;;;;;8374693;28;20064;-77
2022/03/15 15:21:15;;;;;;;14.35;7.70;;;;;;;;;;8401626;28;20553;-77
2022/03/15 15:25:20;;;;;;;17.15;7.50;;;;;;;;;;8398158;28;20496;-77
2022/03/15 15:29:36;;;;;;;21.63;8.80;;;;;;;;;;8381695;28;20040;-77
2022/03/15 15:33:42;;;;;;;16.70;9.38;;;;;;;;;;8398262;28;20044;-76
2022/03/15 15:37:54;;;;;;;19.88;8.73;;;;;;;;;;8398062;28;20059;-76
2022/03/15 15:41:58;;;;;;;17.98;7.90;;;;;;;;;;8399338;28;20064;-77
2022/03/15 15:46:04;;;;;;;23.02;9.85;;;;;;;;;;8400321;28;20040;-78
2022/03/15 15:50:08;;;;;;;17.58;8.65;;;;;;;;;;8395909;28;20056;-77
2022/03/15 15:54:15;;;;;;;18.13;8.38;;;;;;;;;;8395862;28;20075;-77
2022/03/15 15:58:20;;;;;;;20.55;10.00;;;;;;;;;;8397362;28;20075;-78
2022/03/15 16:02:25;;;;;;;32.10;15.05;;;;;;;;;;8399443;28;20121;-77
2022/03/15 16:06:30;;;;;;;36.22;16.83;;;;;;;;;;8397394;28;20067;-77
2022/03/15 16:10:35;;;;;;;54.30;18.88;;;;;;;;;;8401673;28;20051;-76
2022/03/15 16:14:38;;;;;;;43.38;20.70;;;;;;;;;;8399760;28;20048;-75
2022/03/15 16:18:43;;;;;;;41.35;25.02;;;;;;;;;;8383311;28;20045;-76
2022/03/15 16:22:46;;;;;;;39.78;16.55;;;;;;;;;;8382708;28;20206;-76
2022/03/15 16:26:49;;;;;;;48.38;20.65;;;;;;;;;;8351759;28;20390;-77
2022/03/15 16:30:54;;;;;;;36.47;13.52;;;;;;;;;;8367311;28;20045;-76
2022/03/15 16:35:00;;;;;;;32.33;13.77;;;;;;;;;;8366761;28;20041;-76
2022/03/15 16:39:06;;;;;;;104.05;31.17;;;;;;;;;;8367713;28;20056;-75
2022/03/15 16:43:10;;;;;;;37.85;13.90;;;;;;;;;;8368071;28;20045;-76
2022/03/15 16:47:13;;;;;;;25.80;11.23;;;;;;;;;;8367368;28;20045;-77
2022/03/15 16:51:17;;;;;;;39.58;15.15;;;;;;;;;;8362852;28;20480;-77
2022/03/15 16:55:20;;;;;;;39.65;13.75;;;;;;;;;;8370589;28;20400;-76
2022/03/15 16:59:26;;;;;;;39.00;16.40;;;;;;;;;;8355783;28;20112;-76
2022/03/15 17:08:06;;;;;;;89.45;31.15;;;;;;;;;;8366021;28;20504;-76
2022/03/15 17:12:22;;;;;;;40.90;20.17;;;;;;;;;;8365451;28;20077;-76
2022/03/15 17:16:31;;;;;;;58.35;24.35;;;;;;;;;;8364683;28;20048;-78
2022/03/15 17:20:55;;;;;;;270.58;80.75;;;;;;;;;;8360318;28;20041;-76
2022/03/15 17:25:24;;;;;;;77.95;28.35;;;;;;;;;;8365759;28;20044;-77
2022/03/15 17:29:51;;;;;;;158.98;49.38;;;;;;;;;;8365338;28;20072;-77
2022/03/15 17:34:01;;;;;;;53.50;19.27;;;;;;;;;;8365525;28;20484;-77
2022/03/15 17:38:09;;;;;;;214.68;53.17;;;;;;;;;;8364963;28;20472;-76
2022/03/15 17:42:18;;;;;;;377.75;100.07;;;;;;;;;;8364970;28;20052;-77
2022/03/15 17:46:31;;;;;;;23.58;9.75;;;;;;;;;;8365647;28;20507;-77
2022/03/15 17:50:38;;;;;;;38.13;14.05;;;;;;;;;;8364669;28;20136;-76
2022/03/15 17:54:45;;;;;;;170.38;51.63;;;;;;;;;;8364862;28;20052;-77
2022/03/15 17:58:52;;;;;;;106.88;30.95;;;;;;;;;;8364310;28;20041;-77
2022/03/15 18:02:55;;;;;;;49.60;16.58;;;;;;;;;;8364281;28;20052;-77
2022/03/15 18:07:02;;;;;;;148.23;42.45;;;;;;;;;;8333565;28;20057;-76
2022/03/15 18:11:13;;;;;;;267.63;67.13;;;;;;;;;;8314690;28;20143;-77
2022/03/15 18:15:34;;;;;;;62.08;20.85;;;;;;;;;;8363120;28;20390;-77
2022/03/15 18:20:06;;;;;;;41.20;15.88;;;;;;;;;;8366657;28;20122;-76
2022/03/15 18:24:25;;;;;;;24.65;11.63;;;;;;;;;;8362191;28;20056;-77
2022/03/15 18:28:37;;;;;;;26.38;13.38;;;;;;;;;;8362755;28;20064;-77
2022/03/15 18:32:54;;;;;;;29.77;14.27;;;;;;;;;;8362675;28;20122;-77
2022/03/15 18:36:59;;;;;;;40.63;20.23;;;;;;;;;;8360444;28;20463;-77
2022/03/15 18:41:10;;;;;;;29.52;16.05;;;;;;;;;;8347992;28;20056;-75
2022/03/15 18:45:20;;;;;;;30.95;17.17;;;;;;;;;;8356705;28;20041;-76
2022/03/15 18:49:38;;;;;;;30.05;16.40;;;;;;;;;;8368155;28;20049;-76
2022/03/15 18:53:54;;;;;;;39.15;20.25;;;;;;;;;;8366569;28;20106;-77
2022/03/15 18:58:14;;;;;;;30.75;17.02;;;;;;;;;;8393295;28;20041;-77
2022/03/15 19:02:21;;;;;;;30.60;15.73;;;;;;;;;;8394979;28;20071;-77
2022/03/15 19:06:39;;;;;;;33.80;17.45;;;;;;;;;;8396289;28;20064;-77
2022/03/15 19:10:46;;;;;;;37.20;18.13;;;;;;;;;;8394887;28;20105;-77
2022/03/15 19:14:55;;;;;;;39.25;19.58;;;;;;;;;;8396361;28;20094;-77
2022/03/15 19:19:05;;;;;;;31.77;16.50;;;;;;;;;;8417079;28;20112;-77
2022/03/15 19:23:14;;;;;;;22.13;11.18;;;;;;;;;;8429257;28;20055;-77
2022/03/15 19:27:28;;;;;;;36.53;18.25;;;;;;;;;;8429342;28;20089;-76
2022/03/15 19:32:03;;;;;;;36.25;16.70;;;;;;;;;;8429234;28;20052;-75
2022/03/15 19:36:19;;;;;;;50.30;25.50;;;;;;;;;;8428526;28;20054;-76
2022/03/15 19:40:30;;;;;;;41.03;22.45;;;;;;;;;;8414454;28;20385;-75
2022/03/15 19:44:36;;;;;;;38.67;19.05;;;;;;;;;;8396010;28;20066;-77
2022/03/15 19:48:49;;;;;;;41.72;18.67;;;;;;;;;;8396379;28;20075;-76
2022/03/15 19:53:00;;;;;;;37.13;19.70;;;;;;;;;;8395435;28;20063;-76
2022/03/15 19:57:34;;;;;;;33.90;17.00;;;;;;;;;;8395244;28;20063;-77
2022/03/15 20:01:47;;;;;;;36.45;21.02;;;;;;;;;;8400285;28;20048;-76
2022/03/15 20:06:06;;;;;;;80.72;46.22;;;;;;;;;;8401526;28;20048;-76
2022/03/15 20:15:37;;;;;;;39.38;20.77;;;;;;;;;;8400045;28;20106;-77
2022/03/15 20:19:55;;;;;;;31.58;15.40;;;;;;;;;;8403801;28;20533;-76
2022/03/15 20:24:11;;;;;;;41.33;17.95;;;;;;;;;;8434296;28;20048;-76
2022/03/15 20:28:24;;;;;;;46.78;26.95;;;;;;;;;;8434127;28;20051;-76
2022/03/15 20:32:53;;;;;;;62.47;25.73;;;;;;;;;;8433187;28;20044;-77
2022/03/15 20:37:10;;;;;;;56.42;28.23;;;;;;;;;;8434165;28;20256;-77
2022/03/15 20:41:35;;;;;;;46.10;19.50;;;;;;;;;;8407282;28;20135;-77
2022/03/15 20:45:44;;;;;;;32.67;15.77;;;;;;;;;;8400148;28;20091;-76
2022/03/15 20:50:02;;;;;;;54.25;23.05;;;;;;;;;;8400113;28;20072;-76
2022/03/15 20:54:13;;;;;;;40.75;19.27;;;;;;;;;;8399929;28;20045;-76
2022/03/15 20:58:39;;;;;;;30.13;15.13;;;;;;;;;;8400326;28;20492;-75
2022/03/15 21:02:47;;;;;;;30.70;15.10;;;;;;;;;;8433259;28;20052;-77
2022/03/15 21:07:09;;;;;;;53.72;20.88;;;;;;;;;;8433376;28;20051;-77
2022/03/15 21:11:19;;;;;;;43.08;20.23;;;;;;;;;;8431748;28;20127;-76
2022/03/15 21:16:12;;;;;;;41.45;18.48;;;;;;;;;;8430698;28;20139;-78
2022/03/15 21:25:45;;;;;;;29.35;16.30;;;;;;;;;;8400611;28;20236;-76
2022/03/15 21:29:54;;;;;;;31.80;18.50;;;;;;;;;;8398406;28;20567;-76
2022/03/15 21:33:59;;;;;;;36.72;19.65;;;;;;;;;;8398590;28;20286;-76
2022/03/15 21:38:10;;;;;;;40.25;18.48;;;;;;;;;;8399040;28;20543;-78
2022/03/15 21:42:19;;;;;;;45.13;23.77;;;;;;;;;;8397873;28;20048;-77
2022/03/15 21:46:31;;;;;;;82.97;28.25;;;;;;;;;;8398200;28;20051;-77
2022/03/15 21:50:49;;;;;;;55.58;24.20;;;;;;;;;;8397761;28;20087;-77
2022/03/15 21:55:15;;;;;;;34.25;19.02;;;;;;;;;;8397972;28;20118;-76
2022/03/15 21:59:29;;;;;;;32.25;17.48;;;;;;;;;;8397169;28;20051;-77
2022/03/15 22:03:34;;;;;;;36.00;19.30;;;;;;;;;;8397530;28;20051;-76
2022/03/15 22:07:38;;;;;;;37.72;18.90;;;;;;;;;;8398247;28;20048;-76
2022/03/15 22:11:42;;;;;;;42.38;23.08;;;;;;;;;;8413854;28;20123;-76
2022/03/15 22:15:46;;;;;;;36.60;18.83;;;;;;;;;;8430917;28;20040;-76
2022/03/15 22:19:51;;;;;;;32.40;16.42;;;;;;;;;;8388759;28;20393;-77
2022/03/15 22:23:53;;;;;;;32.03;15.30;;;;;;;;;;8364347;28;20095;-77
2022/03/15 22:27:57;;;;;;;68.75;27.25;;;;;;;;;;8364183;28;20449;-77
2022/03/15 23:19:07;;;;;;;46.80;22.42;;;;;;;;;;8390123;28;20055;-77
2022/03/15 23:23:11;;;;;;;47.33;21.48;;;;;;;;;;8393923;28;20052;-76
2022/03/15 23:27:27;;;;;;;47.80;21.63;;;;;;;;;;8394270;28;20123;-75
2022/03/15 23:31:30;;;;;;;48.08;22.35;;;;;;;;;;8395333;28;20123;-77
2022/03/15 23:35:33;;;;;;;43.47;20.77;;;;;;;;;;8397959;28;20458;-76
2022/03/15 23:39:37;;;;;;;56.67;26.98;;;;;;;;;;8402877;28;20526;-76
2022/03/15 23:43:39;;;;;;;47.80;23.90;;;;;;;;;;8400025;28;20052;-75
2022/03/15 23:47:44;;;;;;;68.72;31.90;;;;;;;;;;8399713;28;20055;-77
2022/03/15 23:51:46;;;;;;;60.28;27.95;;;;;;;;;;8401460;28;20056;-77
2022/03/15 23:55:50;;;;;;;57.13;28.05;;;;;;;;;;8401833;28;20072;-77
2022/03/15 23:59:53;;;;;;;99.70;44.88;;;;;;;;;;8401737;28;20048;-76
